Time;durP1;ratioP1;P1;durP2;ratioP2;P2;SDS_P1;SDS_P2;PMS_P1;PMS_P2;Temp;Humidity;BMP_temperature;BMP_pressure;BME280_temperature;BME280_humidity;BME280_pressure;Samples;Min_cycle;Max_cycle;Signal;HPM_P1;HPM_P2
2021/08/15 00:01:13;;;;;;;7.32;4.25;;;23.90;71.50;;;;;;5069712;28;20401;-75
2021/08/15 00:03:39;;;;;;;8.85;4.05;;;23.90;71.70;;;;;;5071330;28;20036;-76
2021/08/15 00:06:05;;;;;;;12.48;4.07;;;23.90;71.40;;;;;;5071043;28;20020;-76
2021/08/15 00:08:31;;;;;;;8.13;4.30;;;23.90;71.30;;;;;;5071044;28;20037;-75
2021/08/15 00:10:57;;;;;;;9.38;4.78;;;24.00;71.30;;;;;;5069646;28;20116;-75
2021/08/15 00:13:23;;;;;;;7.72;5.70;;;24.00;71.10;;;;;;5069637;28;20469;-76
2021/08/15 00:15:49;;;;;;;12.20;4.50;;;24.00;71.30;;;;;;5070974;28;20017;-75
2021/08/15 00:18:16;;;;;;;10.48;4.57;;;24.00;71.50;;;;;;5069644;28;20089;-75
2021/08/15 00:20:45;;;;;;;10.52;4.50;;;23.90;71.70;;;;;;5069416;28;20047;-75
2021/08/15 00:23:10;;;;;;;6.60;4.30;;;23.80;72.00;;;;;;5070685;28;20040;-75
2021/08/15 00:25:36;;;;;;;11.65;4.50;;;23.80;72.50;;;;;;5070937;28;20031;-75
2021/08/15 00:28:02;;;;;;;9.23;4.32;;;23.70;72.80;;;;;;5069269;28;20492;-75
2021/08/15 00:30:27;;;;;;;7.18;4.28;;;23.70;73.10;;;;;;5070721;28;20025;-76
2021/08/15 00:32:53;;;;;;;7.90;4.45;;;23.60;73.20;;;;;;5068947;28;20028;-76
2021/08/15 00:35:18;;;;;;;6.53;4.18;;;23.60;73.20;;;;;;5068990;28;20031;-77
2021/08/15 00:37:44;;;;;;;6.03;4.47;;;23.70;73.00;;;;;;5069182;28;20328;-76
2021/08/15 00:40:11;;;;;;;7.95;4.78;;;23.60;73.00;;;;;;5069101;28;20485;-76
2021/08/15 00:42:37;;;;;;;10.98;5.07;;;23.60;72.70;;;;;;5070253;28;20512;-75
2021/08/15 00:45:03;;;;;;;10.65;4.68;;;23.70;72.90;;;;;;5069123;28;20028;-75
2021/08/15 00:47:30;;;;;;;6.93;4.40;;;23.60;72.80;;;;;;5068875;28;20078;-76
2021/08/15 00:49:58;;;;;;;6.13;4.35;;;23.70;72.90;;;;;;5070109;28;20043;-76
2021/08/15 00:52:23;;;;;;;14.70;4.80;;;23.70;73.20;;;;;;5070133;28;20028;-75
2021/08/15 00:54:49;;;;;;;7.03;4.55;;;23.70;73.20;;;;;;5068810;28;20029;-75
2021/08/15 00:57:15;;;;;;;7.13;3.92;;;23.60;73.10;;;;;;5068727;28;20741;-76
2021/08/15 00:59:42;;;;;;;10.45;4.47;;;23.60;73.20;;;;;;5068854;28;20032;-76
2021/08/15 01:02:08;;;;;;;7.10;4.60;;;23.60;73.40;;;;;;5069777;28;20049;-76
2021/08/15 01:04:39;;;;;;;8.13;4.70;;;23.50;73.70;;;;;;5069938;28;20035;-75
2021/08/15 01:07:06;;;;;;;9.45;5.07;;;23.40;74.60;;;;;;5070206;28;20039;-76
2021/08/15 01:09:32;;;;;;;11.82;5.03;;;23.40;74.10;;;;;;5069805;28;20031;-77
2021/08/15 01:12:00;;;;;;;7.07;4.38;;;23.40;74.10;;;;;;5069670;28;20050;-76
2021/08/15 01:14:26;;;;;;;7.47;5.15;;;23.40;74.10;;;;;;5069911;28;20024;-76
2021/08/15 01:16:51;;;;;;;8.05;4.47;;;23.40;74.20;;;;;;5069741;28;20028;-76
2021/08/15 01:19:17;;;;;;;8.25;4.90;;;23.40;74.20;;;;;;5069683;28;20406;-76
2021/08/15 01:21:44;;;;;;;11.38;4.13;;;23.40;74.30;;;;;;5068073;28;20582;-76
2021/08/15 01:24:10;;;;;;;6.30;4.22;;;23.40;74.00;;;;;;5069480;28;20032;-75
2021/08/15 01:26:37;;;;;;;12.43;4.00;;;23.40;73.80;;;;;;5068202;28;20037;-76
2021/08/15 01:29:03;;;;;;;8.27;3.88;;;23.50;73.60;;;;;;5068038;28;20024;-76
2021/08/15 01:31:29;;;;;;;12.88;4.22;;;23.50;73.50;;;;;;5068084;28;20519;-76
2021/08/15 01:33:54;;;;;;;6.78;4.70;;;23.50;73.60;;;;;;5069344;28;20480;-76
2021/08/15 01:36:21;;;;;;;7.25;4.40;;;23.50;73.60;;;;;;5069467;28;20396;-76
2021/08/15 01:38:49;;;;;;;6.75;4.60;;;23.50;73.90;;;;;;5068078;28;20501;-76
2021/08/15 01:41:16;;;;;;;10.25;4.65;;;23.40;74.00;;;;;;5067616;28;20424;-76
2021/08/15 01:43:49;;;;;;;9.95;4.60;;;23.40;74.40;;;;;;5068256;28;20040;-76
2021/08/15 01:46:15;;;;;;;9.35;6.00;;;23.30;74.80;;;;;;5067620;28;20025;-76
2021/08/15 01:48:41;;;;;;;7.90;5.28;;;23.20;75.40;;;;;;5067958;28;20574;-76
2021/08/15 01:51:06;;;;;;;7.40;5.05;;;23.10;75.80;;;;;;5069090;28;20081;-77
2021/08/15 01:53:32;;;;;;;8.75;4.70;;;23.00;76.50;;;;;;5067646;28;20020;-76
2021/08/15 01:55:58;;;;;;;10.43;5.10;;;22.90;77.00;;;;;;5068815;28;20078;-75
2021/08/15 01:58:23;;;;;;;7.10;4.82;;;22.80;77.70;;;;;;5067624;28;20127;-75
2021/08/15 02:00:49;;;;;;;11.27;5.13;;;22.70;78.20;;;;;;5068817;28;20103;-76
2021/08/15 02:03:15;;;;;;;7.30;4.88;;;22.70;78.40;;;;;;5068672;28;20123;-75
2021/08/15 02:05:42;;;;;;;5.78;4.22;;;22.60;78.70;;;;;;5068735;28;20033;-77
2021/08/15 02:08:08;;;;;;;7.93;4.43;;;22.60;78.80;;;;;;5066816;28;20040;-75
2021/08/15 02:10:34;;;;;;;6.95;4.55;;;22.60;78.90;;;;;;5067069;28;20028;-75
2021/08/15 02:13:03;;;;;;;12.88;4.80;;;22.60;78.50;;;;;;5067593;28;20044;-75
2021/08/15 02:15:29;;;;;;;6.57;4.75;;;22.70;78.00;;;;;;5068632;28;20499;-75
2021/08/15 02:17:55;;;;;;;9.43;4.25;;;22.80;77.40;;;;;;5066844;28;20119;-75
2021/08/15 02:20:21;;;;;;;5.95;4.70;;;22.90;76.50;;;;;;5067186;28;20515;-76
2021/08/15 02:22:47;;;;;;;7.10;4.63;;;23.00;76.20;;;;;;5068559;28;20036;-76
2021/08/15 02:25:15;;;;;;;13.88;5.22;;;23.10;75.90;;;;;;5067239;28;20036;-75
2021/08/15 02:27:41;;;;;;;13.13;4.13;;;23.30;75.20;;;;;;5068609;28;20081;-76
2021/08/15 02:30:09;;;;;;;7.65;4.22;;;23.40;74.80;;;;;;5067047;28;20028;-76
2021/08/15 02:32:36;;;;;;;7.03;4.03;;;23.40;75.30;;;;;;5068555;28;20112;-76
2021/08/15 02:35:06;;;;;;;7.45;4.30;;;23.40;74.40;;;;;;5067444;28;20073;-74
2021/08/15 02:37:32;;;;;;;11.70;4.22;;;23.50;74.10;;;;;;5066977;28;20032;-75
2021/08/15 02:40:02;;;;;;;7.40;4.68;;;23.50;73.90;;;;;;5068279;28;20032;-76
2021/08/15 02:42:29;;;;;;;6.35;4.10;;;23.50;73.80;;;;;;5066757;28;20083;-76
2021/08/15 02:44:55;;;;;;;6.68;4.35;;;23.50;73.90;;;;;;5068603;28;20091;-76
2021/08/15 02:47:21;;;;;;;10.93;4.55;;;23.40;74.10;;;;;;5067513;28;20056;-76
2021/08/15 02:49:47;;;;;;;10.13;4.22;;;23.40;74.50;;;;;;5067189;28;20063;-75
2021/08/15 02:52:13;;;;;;;7.60;4.28;;;23.30;75.30;;;;;;5066745;28;20043;-75
2021/08/15 02:54:38;;;;;;;8.30;4.70;;;23.10;76.30;;;;;;5068284;28;20081;-75
2021/08/15 02:57:04;;;;;;;11.30;4.90;;;23.00;77.30;;;;;;5068294;28;20107;-75
2021/08/15 02:59:30;;;;;;;8.10;4.53;;;22.70;78.10;;;;;;5068273;28;20200;-75
2021/08/15 03:01:56;;;;;;;6.85;4.35;;;22.60;79.00;;;;;;5067951;28;20032;-75
2021/08/15 03:04:22;;;;;;;17.38;5.38;;;22.50;79.50;;;;;;5068226;28;20470;-75
2021/08/15 03:06:47;;;;;;;7.30;4.60;;;22.50;79.80;;;;;;5068097;28;20376;-76
2021/08/15 03:09:13;;;;;;;11.20;5.45;;;22.40;80.10;;;;;;5067174;28;20048;-75
2021/08/15 03:11:39;;;;;;;10.00;5.13;;;22.30;80.30;;;;;;5066767;28;20108;-76
2021/08/15 03:14:05;;;;;;;10.60;5.57;;;22.30;80.40;;;;;;5067843;28;20103;-76
2021/08/15 03:16:31;;;;;;;10.70;4.72;;;22.30;80.90;;;;;;5066644;28;20048;-75
2021/08/15 03:18:56;;;;;;;6.43;4.78;;;22.30;81.30;;;;;;5068189;28;20480;-76
2021/08/15 03:21:24;;;;;;;9.88;5.03;;;22.20;81.30;;;;;;5070632;28;20035;-76
2021/08/15 03:23:50;;;;;;;7.65;4.28;;;22.20;81.60;;;;;;5070599;28;20064;-75
2021/08/15 03:26:16;;;;;;;12.57;5.07;;;22.10;81.80;;;;;;5071681;28;20151;-75
2021/08/15 03:28:43;;;;;;;7.43;4.47;;;22.10;82.10;;;;;;5070436;28;20025;-75
2021/08/15 03:31:08;;;;;;;7.25;4.30;;;22.00;82.30;;;;;;5071668;28;20028;-75
2021/08/15 03:33:34;;;;;;;5.70;4.15;;;22.00;82.50;;;;;;5070661;28;20028;-75
2021/08/15 03:36:01;;;;;;;7.88;4.57;;;21.90;82.80;;;;;;5070269;28;20383;-75
2021/08/15 03:38:27;;;;;;;10.23;4.82;;;21.90;83.10;;;;;;5070475;28;20017;-73
2021/08/15 03:40:52;;;;;;;12.10;5.07;;;21.90;83.40;;;;;;5071411;28;20052;-75
2021/08/15 03:43:18;;;;;;;5.57;4.10;;;21.90;83.50;;;;;;5071387;28;20037;-77
2021/08/15 03:45:43;;;;;;;6.97;4.13;;;21.80;83.80;;;;;;5070203;28;20099;-76
2021/08/15 03:48:09;;;;;;;10.98;5.03;;;21.80;83.70;;;;;;5071158;28;20037;-75
2021/08/15 03:50:35;;;;;;;10.23;5.10;;;21.90;83.60;;;;;;5071329;28;20024;-75
2021/08/15 03:53:00;;;;;;;7.47;3.92;;;22.00;83.60;;;;;;5071504;28;20040;-76
2021/08/15 03:55:26;;;;;;;7.85;4.63;;;22.00;84.50;;;;;;5070170;28;20106;-76
2021/08/15 03:57:52;;;;;;;6.35;4.03;;;22.00;83.80;;;;;;5069914;28;20039;-75
2021/08/15 04:00:18;;;;;;;5.75;3.95;;;22.00;83.70;;;;;;5070149;28;20111;-75
2021/08/15 04:02:43;;;;;;;7.60;4.13;;;22.00;83.70;;;;;;5069821;28;20040;-75
2021/08/15 04:05:09;;;;;;;8.63;3.92;;;22.20;83.30;;;;;;5066574;28;20028;-75
2021/08/15 04:07:35;;;;;;;9.30;4.45;;;22.30;82.80;;;;;;5063604;28;20029;-76
2021/08/15 04:10:02;;;;;;;7.57;4.22;;;22.40;82.50;;;;;;5050715;28;20029;-75
2021/08/15 04:12:29;;;;;;;6.85;4.28;;;22.50;82.30;;;;;;5049809;28;20082;-75
2021/08/15 04:14:54;;;;;;;7.25;4.32;;;22.70;81.70;;;;;;5051031;28;20044;-75
2021/08/15 04:17:20;;;;;;;6.57;4.05;;;22.80;81.50;;;;;;5049594;28;20512;-76
2021/08/15 04:19:45;;;;;;;6.72;3.58;;;22.90;81.10;;;;;;5050921;28;20124;-75
2021/08/15 04:22:12;;;;;;;9.07;4.25;;;23.00;80.90;;;;;;5049471;28;20048;-75
2021/08/15 04:24:38;;;;;;;6.40;4.10;;;23.10;80.70;;;;;;5049622;28;20075;-76
2021/08/15 04:27:04;;;;;;;7.88;4.10;;;23.20;80.30;;;;;;5050671;28;20057;-76
2021/08/15 04:29:30;;;;;;;8.95;4.63;;;23.20;80.00;;;;;;5049380;28;20025;-76
2021/08/15 04:31:56;;;;;;;9.55;4.43;;;23.20;80.30;;;;;;5056417;28;20032;-75
2021/08/15 04:34:21;;;;;;;12.15;4.55;;;23.20;80.20;;;;;;5060764;28;20029;-76
2021/08/15 04:36:47;;;;;;;8.80;4.68;;;23.30;79.60;;;;;;5060297;28;20037;-76
2021/08/15 04:39:13;;;;;;;9.13;4.43;;;23.40;78.90;;;;;;5059328;28;20020;-75
2021/08/15 04:41:38;;;;;;;13.00;4.53;;;23.60;78.60;;;;;;5054950;28;20140;-74
2021/08/15 04:44:04;;;;;;;8.23;4.00;;;23.70;78.20;;;;;;5063226;28;20388;-75
2021/08/15 04:46:30;;;;;;;12.02;3.92;;;23.80;77.90;;;;;;5069230;28;20688;-75
2021/08/15 04:48:55;;;;;;;6.95;4.32;;;23.90;77.50;;;;;;5068926;28;20086;-76
2021/08/15 04:51:21;;;;;;;5.40;4.00;;;24.10;76.90;;;;;;5068804;28;20036;-76
2021/08/15 04:53:46;;;;;;;5.55;3.83;;;24.30;75.80;;;;;;5069043;28;20029;-76
2021/08/15 04:56:12;;;;;;;8.15;5.10;;;24.40;74.90;;;;;;5068705;28;20119;-76
2021/08/15 04:58:38;;;;;;;9.73;4.03;;;24.60;74.10;;;;;;5064952;28;20797;-75
2021/08/15 05:01:04;;;;;;;8.68;4.07;;;24.80;73.30;;;;;;5066489;28;20518;-76
2021/08/15 05:03:30;;;;;;;7.80;4.28;;;25.00;72.80;;;;;;5067162;28;20473;-76
2021/08/15 05:05:55;;;;;;;9.00;4.47;;;25.30;71.80;;;;;;5062140;28;20024;-77
2021/08/15 05:08:21;;;;;;;9.48;4.68;;;25.50;70.80;;;;;;5057898;28;20058;-76
2021/08/15 05:10:47;;;;;;;14.65;5.05;;;25.70;70.20;;;;;;5058047;28;20025;-77
2021/08/15 05:13:13;;;;;;;12.23;4.93;;;25.80;70.60;;;;;;5057407;28;20031;-76
2021/08/15 05:15:39;;;;;;;10.45;5.18;;;26.00;69.30;;;;;;5059214;28;20016;-76
2021/08/15 05:18:05;;;;;;;12.23;5.20;;;26.20;68.90;;;;;;5060114;28;20081;-77
2021/08/15 05:20:31;;;;;;;11.00;4.70;;;26.60;69.00;;;;;;5052709;28;20401;-76
2021/08/15 05:22:59;;;;;;;10.23;4.80;;;27.00;68.70;;;;;;5049726;28;20045;-76
2021/08/15 05:25:25;;;;;;;9.13;4.90;;;27.30;67.40;;;;;;5049837;28;20100;-76
2021/08/15 05:27:51;;;;;;;9.80;4.10;;;27.50;65.30;;;;;;5049800;28;20143;-76
2021/08/15 05:30:17;;;;;;;8.65;4.68;;;27.50;65.20;;;;;;5049634;28;20481;-76
2021/08/15 05:32:42;;;;;;;10.07;4.63;;;27.50;64.50;;;;;;5048072;28;20539;-75
2021/08/15 05:35:09;;;;;;;7.28;3.53;;;27.50;64.20;;;;;;5049665;28;20056;-76
2021/08/15 05:37:38;;;;;;;7.22;4.13;;;27.40;63.90;;;;;;5048122;28;20101;-76
2021/08/15 05:40:04;;;;;;;5.45;3.85;;;27.40;64.30;;;;;;5047928;28;20028;-76
2021/08/15 05:42:29;;;;;;;6.03;3.75;;;27.40;64.20;;;;;;5048226;28;20052;-76
2021/08/15 05:44:55;;;;;;;6.60;3.55;;;27.60;63.70;;;;;;5048043;28;20082;-76
2021/08/15 05:47:21;;;;;;;8.70;4.13;;;27.80;63.30;;;;;;5047782;28;20487;-76
2021/08/15 05:49:46;;;;;;;10.07;3.90;;;28.20;63.00;;;;;;5047823;28;20031;-76
2021/08/15 05:52:12;;;;;;;10.45;4.13;;;28.70;60.70;;;;;;5047660;28;20025;-73
2021/08/15 05:54:38;;;;;;;9.82;3.70;;;29.10;58.50;;;;;;5049152;28;20079;-76
2021/08/15 05:57:03;;;;;;;11.82;3.35;;;29.30;56.00;;;;;;5051613;28;20502;-76
2021/08/15 05:59:29;;;;;;;4.63;3.78;;;29.90;54.20;;;;;;5060313;28;20412;-76
2021/08/15 06:01:55;;;;;;;10.65;3.53;;;30.30;53.50;;;;;;5047306;28;20033;-76
2021/08/15 06:04:21;;;;;;;8.75;3.20;;;30.90;52.40;;;;;;5048877;28;20037;-76
2021/08/15 06:06:47;;;;;;;9.73;3.70;;;31.40;51.00;;;;;;5047856;28;20036;-74
2021/08/15 06:09:13;;;;;;;7.30;3.83;;;32.00;50.70;;;;;;5047577;28;20406;-74
2021/08/15 06:11:39;;;;;;;8.50;3.92;;;32.60;49.60;;;;;;5047476;28;20027;-77
2021/08/15 06:14:05;;;;;;;6.85;4.03;;;33.20;48.20;;;;;;5047379;28;20040;-77
2021/08/15 06:16:30;;;;;;;6.07;3.78;;;34.00;46.60;;;;;;5048654;28;20025;-76
2021/08/15 06:18:56;;;;;;;5.90;4.00;;;34.30;45.10;;;;;;5068781;28;20492;-79
2021/08/15 06:21:21;;;;;;;7.38;3.78;;;34.50;44.20;;;;;;5067093;28;20324;-78
2021/08/15 06:23:48;;;;;;;8.60;3.72;;;34.90;44.00;;;;;;5067282;28;20484;-76
2021/08/15 06:26:14;;;;;;;10.00;3.33;;;35.30;42.60;;;;;;5067194;28;20024;-76
2021/08/15 06:28:39;;;;;;;5.78;3.33;;;35.90;41.80;;;;;;5068480;28;20028;-75
2021/08/15 06:31:05;;;;;;;5.82;3.45;;;36.10;39.70;;;;;;5067402;28;20033;-76
2021/08/15 06:33:30;;;;;;;8.48;3.75;;;36.60;39.60;;;;;;5057585;28;20371;-76
2021/08/15 06:35:56;;;;;;;8.18;3.33;;;36.60;38.90;;;;;;5066846;28;20526;-76
2021/08/15 06:38:22;;;;;;;9.50;3.45;;;36.70;38.10;;;;;;5068640;28;20055;-76
2021/08/15 06:40:47;;;;;;;5.75;3.10;;;36.90;37.50;;;;;;5068116;28;20515;-76
2021/08/15 06:43:13;;;;;;;13.40;4.03;;;37.20;37.30;;;;;;5068335;28;20097;-76
2021/08/15 06:45:40;;;;;;;8.65;4.15;;;37.10;36.70;;;;;;5066964;28;20465;-77
2021/08/15 06:48:06;;;;;;;9.48;3.35;;;36.40;38.00;;;;;;5068201;28;20042;-76
2021/08/15 06:50:32;;;;;;;4.80;3.38;;;36.60;37.90;;;;;;5060047;28;20554;-74
2021/08/15 06:52:58;;;;;;;10.20;3.60;;;36.70;37.40;;;;;;5052440;28;20033;-76
2021/08/15 06:55:24;;;;;;;4.47;3.08;;;36.70;37.90;;;;;;5047113;28;20029;-75
2021/08/15 06:57:49;;;;;;;4.97;3.63;;;36.60;37.80;;;;;;5055175;28;20032;-76
2021/08/15 07:00:16;;;;;;;7.13;3.88;;;36.90;38.50;;;;;;5067762;28;20031;-77
2021/08/15 07:02:43;;;;;;;13.25;3.58;;;37.20;38.50;;;;;;5060351;28;20041;-76
2021/08/15 07:05:10;;;;;;;8.57;4.28;;;37.60;38.30;;;;;;5067139;28;20130;-77
2021/08/15 07:07:36;;;;;;;6.75;3.30;;;37.90;37.70;;;;;;5068531;28;20801;-75
2021/08/15 07:10:04;;;;;;;4.95;3.33;;;38.20;38.50;;;;;;5068423;28;20081;-76
2021/08/15 07:12:29;;;;;;;6.78;2.85;;;38.40;37.60;;;;;;5066740;28;20420;-76
2021/08/15 07:14:56;;;;;;;7.63;3.20;;;38.40;36.70;;;;;;5068109;28;20043;-79
2021/08/15 07:17:21;;;;;;;12.23;3.70;;;38.50;37.10;;;;;;5066613;28;20068;-79
2021/08/15 07:19:47;;;;;;;4.97;3.60;;;38.70;36.60;;;;;;5067969;28;20468;-77
2021/08/15 07:22:13;;;;;;;8.27;3.63;;;38.80;36.20;;;;;;5066155;28;20416;-77
2021/08/15 07:24:38;;;;;;;7.72;4.13;;;38.90;36.30;;;;;;5066548;28;20029;-76
2021/08/15 07:27:04;;;;;;;8.18;3.70;;;39.00;35.30;;;;;;5067888;28;20493;-77
2021/08/15 07:29:30;;;;;;;8.20;4.05;;;38.90;34.70;;;;;;5067768;28;20051;-77
2021/08/15 07:31:55;;;;;;;6.18;3.92;;;38.90;35.10;;;;;;5066391;28;20028;-77
2021/08/15 07:34:21;;;;;;;7.55;4.10;;;39.10;35.50;;;;;;5067935;28;20569;-76
2021/08/15 07:36:47;;;;;;;12.57;4.20;;;39.40;34.80;;;;;;5056834;28;20037;-76
2021/08/15 07:39:13;;;;;;;9.07;4.43;;;39.10;34.40;;;;;;5064548;28;20029;-77
2021/08/15 07:41:39;;;;;;;14.65;3.80;;;39.10;34.40;;;;;;5054250;28;20087;-77
2021/08/15 07:44:05;;;;;;;6.13;3.88;;;38.90;35.20;;;;;;5046295;28;20068;-76
2021/08/15 07:46:31;;;;;;;5.57;3.33;;;39.30;35.40;;;;;;5046362;28;20485;-76
2021/08/15 07:48:57;;;;;;;9.35;3.72;;;39.40;35.00;;;;;;5046460;28;20029;-76
2021/08/15 07:51:24;;;;;;;8.57;4.60;;;39.80;35.20;;;;;;5047908;28;20029;-76
2021/08/15 07:53:50;;;;;;;10.40;4.13;;;40.20;32.90;;;;;;5050005;28;20055;-77
2021/08/15 07:56:16;;;;;;;4.95;3.60;;;40.30;32.70;;;;;;5055154;28;20515;-76
2021/08/15 07:58:41;;;;;;;6.68;4.10;;;40.30;32.80;;;;;;5046241;28;20031;-77
2021/08/15 08:01:07;;;;;;;5.07;3.90;;;40.40;33.20;;;;;;5051130;28;20025;-76
2021/08/15 08:03:33;;;;;;;8.05;3.75;;;40.50;32.90;;;;;;5047516;28;20363;-76
2021/08/15 08:05:58;;;;;;;6.10;4.15;;;41.00;33.10;;;;;;5060479;28;20504;-77
2021/08/15 08:08:24;;;;;;;5.60;3.47;;;41.50;32.70;;;;;;5071101;28;20060;-76
2021/08/15 08:10:53;;;;;;;6.32;3.72;;;41.60;32.30;;;;;;5062932;28;20577;-77
2021/08/15 08:13:20;;;;;;;18.88;3.83;;;41.40;32.20;;;;;;5058069;28;20029;-77
2021/08/15 08:15:45;;;;;;;6.93;3.25;;;41.60;32.30;;;;;;5059060;28;20031;-77
2021/08/15 08:18:11;;;;;;;12.07;4.22;;;41.50;32.10;;;;;;5065402;28;20037;-76
2021/08/15 08:20:38;;;;;;;9.45;4.20;;;41.90;32.20;;;;;;5067163;28;20024;-77
2021/08/15 08:23:05;;;;;;;5.90;3.75;;;42.30;31.50;;;;;;5062759;28;20090;-75
2021/08/15 08:25:31;;;;;;;10.43;3.45;;;42.20;31.10;;;;;;5062906;28;20027;-77
2021/08/15 08:27:57;;;;;;;7.93;4.10;;;42.20;30.70;;;;;;5058038;28;20397;-77
2021/08/15 08:30:23;;;;;;;7.10;3.83;;;42.30;30.30;;;;;;5057385;28;20025;-76
2021/08/15 08:32:48;;;;;;;12.82;4.25;;;42.40;30.20;;;;;;5060312;28;20451;-76
2021/08/15 08:35:14;;;;;;;12.02;4.07;;;42.40;30.20;;;;;;5054436;28;20067;-76
2021/08/15 08:37:40;;;;;;;12.02;4.22;;;42.60;30.50;;;;;;5047907;28;20065;-76
2021/08/15 08:40:06;;;;;;;8.18;4.13;;;42.50;30.40;;;;;;5049232;28;20017;-76
2021/08/15 08:42:33;;;;;;;8.95;3.92;;;42.10;30.90;;;;;;5047640;28;20560;-76
2021/08/15 08:45:03;;;;;;;6.95;3.92;;;42.00;31.60;;;;;;5055720;28;20027;-76
2021/08/15 08:47:30;;;;;;;11.20;4.30;;;42.00;31.30;;;;;;5061417;28;20060;-76
2021/08/15 08:49:57;;;;;;;8.77;4.13;;;41.90;31.70;;;;;;5059557;28;20078;-76
2021/08/15 08:52:29;;;;;;;13.25;4.13;;;42.00;31.60;;;;;;5059355;28;20028;-77
2021/08/15 08:54:59;;;;;;;7.20;3.90;;;42.20;31.50;;;;;;5060071;28;20043;-77
2021/08/15 08:57:26;;;;;;;11.50;3.67;;;41.80;31.80;;;;;;5056040;28;20505;-78
2021/08/15 08:59:52;;;;;;;8.60;4.03;;;41.60;32.50;;;;;;5057615;28;20116;-76
2021/08/15 09:02:18;;;;;;;5.10;3.67;;;41.10;32.90;;;;;;5057842;28;20480;-76
2021/08/15 09:04:44;;;;;;;5.38;3.78;;;40.80;33.40;;;;;;5056782;28;20051;-77
2021/08/15 09:07:12;;;;;;;6.93;3.72;;;40.70;33.70;;;;;;5058873;28;20060;-77
2021/08/15 09:09:39;;;;;;;10.30;4.20;;;40.70;33.60;;;;;;5058620;28;20048;-77
2021/08/15 09:12:05;;;;;;;12.05;3.92;;;41.00;33.20;;;;;;5060073;28;20017;-77
2021/08/15 09:14:33;;;;;;;8.55;4.20;;;41.30;33.20;;;;;;5058847;28;20401;-76
2021/08/15 09:16:59;;;;;;;10.00;4.03;;;41.40;33.10;;;;;;5058604;28;20556;-76
2021/08/15 09:19:31;;;;;;;5.47;4.00;;;41.30;33.10;;;;;;5058056;28;20029;-76
2021/08/15 09:22:09;;;;;;;6.03;4.05;;;41.10;33.20;;;;;;5060228;28;20037;-77
2021/08/15 09:24:59;;;;;;;6.28;3.85;;;41.20;33.20;;;;;;5060294;28;20047;-77
2021/08/15 09:27:24;;;;;;;9.57;4.35;;;41.70;32.50;;;;;;5065775;28;20085;-77
2021/08/15 09:30:09;;;;;;;9.43;3.95;;;41.70;32.80;;;;;;5067321;28;20025;-77
2021/08/15 09:32:37;;;;;;;9.40;3.45;;;41.80;32.10;;;;;;5069483;28;20108;-76
2021/08/15 09:35:03;;;;;;;8.65;4.00;;;42.00;32.20;;;;;;5069659;28;20511;-76
2021/08/15 09:37:30;;;;;;;14.60;4.07;;;42.00;31.70;;;;;;5068168;28;20027;-76
2021/08/15 09:39:56;;;;;;;12.05;3.72;;;41.70;32.60;;;;;;5069251;28;20260;-76
2021/08/15 09:42:44;;;;;;;12.30;4.40;;;41.40;32.80;;;;;;5065592;28;20087;-77
2021/08/15 09:45:31;;;;;;;6.75;4.18;;;41.60;32.90;;;;;;5054060;28;20437;-77
2021/08/15 09:48:14;;;;;;;10.10;3.92;;;41.70;32.70;;;;;;5056430;28;20043;-78
2021/08/15 09:50:40;;;;;;;5.93;3.72;;;41.80;32.40;;;;;;5055635;28;20405;-77
2021/08/15 09:53:06;;;;;;;5.82;3.45;;;41.90;32.70;;;;;;5049573;28;20039;-77
2021/08/15 09:55:45;;;;;;;10.13;4.10;;;42.20;32.20;;;;;;5057818;28;20063;-77
2021/08/15 09:58:17;;;;;;;9.20;3.80;;;42.50;31.20;;;;;;5052279;28;20025;-76
2021/08/15 10:00:43;;;;;;;9.77;4.40;;;42.50;31.40;;;;;;5059872;28;20469;-77
2021/08/15 10:03:09;;;;;;;11.20;3.58;;;42.50;31.50;;;;;;5058136;28;20032;-78
2021/08/15 10:05:35;;;;;;;5.40;3.60;;;42.60;31.60;;;;;;5057808;28;20031;-78
2021/08/15 10:08:01;;;;;;;8.40;4.22;;;42.80;31.50;;;;;;5058040;28;20521;-78
2021/08/15 10:10:27;;;;;;;10.02;4.45;;;42.50;31.20;;;;;;5055327;28;20413;-78
2021/08/15 10:12:53;;;;;;;7.32;4.10;;;42.60;31.30;;;;;;5065230;28;20119;-77
2021/08/15 10:15:19;;;;;;;14.25;3.92;;;42.30;31.80;;;;;;5058936;28;20032;-77
2021/08/15 10:17:48;;;;;;;18.73;4.38;;;41.80;31.80;;;;;;5047766;28;20075;-75
2021/08/15 10:20:23;;;;;;;10.85;3.92;;;41.30;32.90;;;;;;5047226;28;20021;-78
2021/08/15 10:22:50;;;;;;;14.65;4.40;;;40.90;33.70;;;;;;5048703;28;20842;-77
2021/08/15 10:25:34;;;;;;;7.88;4.00;;;40.70;33.50;;;;;;5047861;28;20040;-77
2021/08/15 10:28:00;;;;;;;11.35;4.20;;;40.30;34.00;;;;;;5047758;28;20033;-76
2021/08/15 10:30:44;;;;;;;12.32;4.13;;;39.90;34.00;;;;;;5047356;28;20115;-77
2021/08/15 10:33:09;;;;;;;10.68;3.95;;;39.50;34.00;;;;;;5052012;28;20040;-77
2021/08/15 10:35:38;;;;;;;8.52;4.68;;;39.10;34.40;;;;;;5047998;28;20029;-77
2021/08/15 10:38:15;;;;;;;8.10;4.05;;;38.80;35.70;;;;;;5048414;28;20162;-78
2021/08/15 10:40:41;;;;;;;6.25;4.38;;;38.60;36.00;;;;;;5048141;28;20513;-77
2021/08/15 10:43:35;;;;;;;7.38;4.07;;;38.30;36.20;;;;;;5047128;28;20049;-77
2021/08/15 10:46:18;;;;;;;5.18;3.67;;;38.40;36.10;;;;;;5049055;28;20029;-76
2021/08/15 10:48:57;;;;;;;11.48;3.83;;;38.50;35.70;;;;;;5057846;28;20123;-77
2021/08/15 10:51:43;;;;;;;7.57;4.35;;;38.70;35.40;;;;;;5058523;28;20025;-76
2021/08/15 10:54:29;;;;;;;7.72;3.78;;;38.40;35.70;;;;;;5056794;28;20037;-77
2021/08/15 10:57:00;;;;;;;10.75;3.47;;;38.20;36.20;;;;;;5029554;28;20037;-76
2021/08/15 10:59:32;;;;;;;12.65;3.65;;;37.90;36.10;;;;;;5057203;28;20029;-77
2021/08/15 11:02:36;;;;;;;10.77;3.60;;;37.80;36.90;;;;;;5064061;28;20041;-77
2021/08/15 11:05:04;;;;;;;10.43;4.03;;;37.40;37.50;;;;;;5057296;28;20131;-77
2021/08/15 11:07:40;;;;;;;12.15;3.88;;;37.30;37.50;;;;;;5066751;28;20039;-78
2021/08/15 11:10:12;;;;;;;6.75;4.25;;;37.10;37.30;;;;;;5067911;28;20503;-76
2021/08/15 11:13:13;;;;;;;16.38;4.30;;;36.80;38.20;;;;;;5066932;28;20028;-77
2021/08/15 11:15:39;;;;;;;7.72;4.30;;;36.60;38.00;;;;;;5068269;28;20490;-77
2021/08/15 11:18:10;;;;;;;12.68;4.43;;;36.30;38.10;;;;;;5067969;28;20024;-77
2021/08/15 11:20:47;;;;;;;11.18;4.10;;;36.20;38.90;;;;;;5066195;28;20655;-77
2021/08/15 11:23:18;;;;;;;10.45;4.32;;;36.40;38.00;;;;;;5068052;28;20135;-76
2021/08/15 11:25:45;;;;;;;7.80;4.07;;;36.30;38.10;;;;;;5067059;28;20029;-78
2021/08/15 11:28:12;;;;;;;7.47;3.60;;;36.30;38.20;;;;;;5066562;28;20520;-77
2021/08/15 11:30:39;;;;;;;5.88;4.30;;;36.40;38.20;;;;;;5063098;28;20032;-76
2021/08/15 11:33:07;;;;;;;6.47;3.63;;;36.40;37.90;;;;;;5056147;28;20035;-78
2021/08/15 11:35:44;;;;;;;10.35;4.50;;;36.50;37.90;;;;;;5067495;28;20029;-76
2021/08/15 11:38:15;;;;;;;8.35;3.30;;;36.60;38.30;;;;;;5067087;28;20100;-77
2021/08/15 11:40:49;;;;;;;7.57;3.97;;;36.80;38.20;;;;;;5067119;28;20032;-77
2021/08/15 11:43:18;;;;;;;6.18;3.95;;;36.90;37.90;;;;;;5069235;28;20071;-77
2021/08/15 11:45:48;;;;;;;7.25;4.00;;;37.00;37.70;;;;;;5071551;28;20029;-77
2021/08/15 11:48:15;;;;;;;6.88;4.20;;;36.90;37.50;;;;;;5069528;28;20031;-77
2021/08/15 11:50:46;;;;;;;8.77;4.03;;;36.90;38.00;;;;;;5065079;28;20111;-77
2021/08/15 11:53:27;;;;;;;11.45;4.07;;;36.90;38.50;;;;;;5052748;28;20053;-78
2021/08/15 11:55:54;;;;;;;4.90;4.15;;;36.90;38.50;;;;;;5065250;28;20037;-77
2021/08/15 11:58:20;;;;;;;8.00;4.50;;;36.90;38.20;;;;;;5051640;28;20025;-77
2021/08/15 12:00:47;;;;;;;7.38;4.32;;;37.00;38.80;;;;;;5049867;28;20033;-77
2021/08/15 12:03:14;;;;;;;6.10;4.35;;;37.00;37.80;;;;;;5051135;28;20033;-77
2021/08/15 12:05:55;;;;;;;7.45;4.10;;;37.00;38.10;;;;;;5050881;28;20057;-77
2021/08/15 12:08:32;;;;;;;9.18;4.07;;;37.10;38.60;;;;;;5057494;28;20101;-76
2021/08/15 12:10:58;;;;;;;10.05;4.57;;;37.10;38.50;;;;;;5054365;28;20028;-77
2021/08/15 12:13:31;;;;;;;7.20;4.72;;;37.20;38.40;;;;;;5054009;28;20120;-77
2021/08/15 12:16:00;;;;;;;11.15;4.30;;;37.20;38.10;;;;;;5054599;28;20032;-77
2021/08/15 12:18:39;;;;;;;6.80;4.32;;;37.30;38.20;;;;;;5051891;28;20071;-77
2021/08/15 12:21:17;;;;;;;10.57;5.22;;;37.40;38.20;;;;;;5059466;28;20025;-77
2021/08/15 12:24:01;;;;;;;6.00;4.25;;;37.00;38.50;;;;;;5049564;28;20040;-77
2021/08/15 12:26:28;;;;;;;7.88;4.05;;;36.80;38.90;;;;;;5049507;28;20057;-76
2021/08/15 12:28:59;;;;;;;6.35;4.30;;;36.90;38.80;;;;;;5050679;28;20029;-77
2021/08/15 12:31:28;;;;;;;7.20;4.90;;;36.90;38.50;;;;;;5050591;28;20031;-77
2021/08/15 12:34:26;;;;;;;9.95;4.00;;;37.00;38.20;;;;;;5060017;28;20017;-77
2021/08/15 12:36:54;;;;;;;10.05;4.45;;;37.20;38.60;;;;;;5066591;28;20097;-77
2021/08/15 12:39:32;;;;;;;4.95;3.85;;;37.30;38.50;;;;;;5053545;28;20278;-76
2021/08/15 12:42:04;;;;;;;6.20;4.28;;;37.60;38.10;;;;;;5069982;28;20421;-76
2021/08/15 12:44:44;;;;;;;17.27;4.55;;;37.60;37.00;;;;;;5069294;28;20074;-77
2021/08/15 12:47:10;;;;;;;11.48;4.07;;;37.50;37.40;;;;;;5070453;28;20102;-77